Time;durP1;ratioP1;P1;durP2;ratioP2;P2;SDS_P1;SDS_P2;PMS_P1;PMS_P2;Temp;Humidity;BMP_temperature;BMP_pressure;BME280_temperature;BME280_humidity;BME280_pressure;Samples;Min_cycle;Max_cycle;Signal;HPM_P1;HPM_P2
2022/07/29 00:01:55;;;;;;;3.42;1.10;;;;;;;16.79;47.93;100137.28;10375107;28;20049;-68
2022/07/29 00:06:57;;;;;;;5.68;1.15;;;;;;;16.86;48.14;100138.63;10374405;28;20451;-68
2022/07/29 00:12:00;;;;;;;4.50;1.20;;;;;;;16.75;48.65;100133.94;10375818;28;20046;-69
2022/07/29 00:17:02;;;;;;;3.78;1.40;;;;;;;16.67;48.82;100136.13;10376981;28;20069;-68
2022/07/29 00:22:04;;;;;;;3.85;1.13;;;;;;;16.53;49.67;100136.03;10375204;28;20053;-68
2022/07/29 00:27:05;;;;;;;6.93;1.25;;;;;;;16.30;49.61;100122.22;10374326;28;20190;-68
2022/07/29 00:32:07;;;;;;;3.65;1.42;;;;;;;16.24;49.98;100111.06;10374159;28;20045;-69
2022/07/29 00:37:08;;;;;;;2.85;1.40;;;;;;;16.39;49.73;100111.09;10374210;28;20048;-68
2022/07/29 00:42:10;;;;;;;4.60;1.23;;;;;;;16.70;48.97;100105.91;10374928;28;20411;-71
2022/07/29 00:47:12;;;;;;;3.53;1.50;;;;;;;16.49;49.43;100111.44;10374193;28;20049;-71
2022/07/29 00:52:14;;;;;;;2.38;1.10;;;;;;;16.19;50.48;100107.81;10358663;28;20052;-71
2022/07/29 00:57:17;;;;;;;3.42;1.42;;;;;;;16.37;50.12;100106.81;10381024;28;20046;-71
2022/07/29 01:02:19;;;;;;;3.28;1.30;;;;;;;16.29;50.68;100087.78;10380665;28;20504;-71
2022/07/29 01:07:21;;;;;;;2.10;1.20;;;;;;;16.28;50.71;100081.63;10381072;28;20495;-70
2022/07/29 01:12:25;;;;;;;8.50;1.55;;;;;;;16.04;51.02;100086.47;10380389;28;20045;-71
2022/07/29 01:18:05;;;;;;;5.97;1.55;;;;;;;16.11;50.80;100085.22;10380757;28;20080;-71
2022/07/29 01:23:20;;;;;;;4.40;1.52;;;;;;;15.75;52.16;100081.84;10296540;28;20062;-71
2022/07/29 01:28:46;;;;;;;3.28;1.40;;;;;;;15.67;51.52;100065.50;10295518;28;20038;-71
2022/07/29 01:33:57;;;;;;;2.47;1.25;;;;;;;15.67;51.61;100062.84;10295214;28;20070;-71
2022/07/29 01:39:07;;;;;;;5.68;1.50;;;;;;;15.63;51.93;100068.28;10295305;28;20063;-71
2022/07/29 01:44:16;;;;;;;2.50;1.38;;;;;;;15.62;52.04;100063.91;10294143;28;20062;-71
2022/07/29 01:49:27;;;;;;;2.80;1.27;;;;;;;15.57;52.23;100067.75;10295297;28;20058;-71
2022/07/29 01:54:35;;;;;;;2.63;1.50;;;;;;;15.42;52.96;100058.81;10294945;28;20047;-71
2022/07/29 01:59:38;;;;;;;2.97;1.42;;;;;;;15.45;52.86;100057.75;10376622;28;20065;-71
2022/07/29 02:04:42;;;;;;;7.75;1.40;;;;;;;15.62;52.93;100060.41;10378484;28;20455;-71
2022/07/29 02:09:47;;;;;;;4.03;1.60;;;;;;;15.86;52.23;100066.25;10378717;28;20046;-71
2022/07/29 02:14:51;;;;;;;3.17;1.60;;;;;;;15.79;52.16;100059.56;10378244;28;20092;-71
2022/07/29 02:19:57;;;;;;;4.10;2.05;;;;;;;15.45;53.02;100057.75;10378474;28;20042;-71
2022/07/29 02:25:00;;;;;;;3.35;1.65;;;;;;;15.44;53.04;100054.25;10377578;28;20046;-71
2022/07/29 02:30:06;;;;;;;5.78;1.70;;;;;;;15.38;53.42;100041.34;10378105;28;20132;-71
2022/07/29 02:35:09;;;;;;;3.38;1.80;;;;;;;15.50;52.84;100047.81;10380066;28;20058;-71
2022/07/29 02:40:14;;;;;;;3.00;1.70;;;;;;;15.56;52.98;100047.50;10378468;28;20050;-71
2022/07/29 02:45:16;;;;;;;2.92;1.80;;;;;;;15.47;53.41;100051.47;10360156;28;20404;-71
2022/07/29 02:50:32;;;;;;;2.38;1.88;;;;;;;15.54;53.03;100044.94;10359287;28;20056;-71
2022/07/29 02:55:42;;;;;;;3.55;2.08;;;;;;;15.63;52.66;100041.78;10377718;28;20407;-70
2022/07/29 03:00:47;;;;;;;3.70;2.33;;;;;;;15.77;52.07;100041.09;10376919;28;20049;-71
2022/07/29 03:05:49;;;;;;;5.75;2.17;;;;;;;15.93;52.00;100045.56;10358756;28;20042;-71
2022/07/29 03:10:51;;;;;;;4.07;2.58;;;;;;;15.73;52.68;100047.50;10375963;28;20049;-71
2022/07/29 03:15:53;;;;;;;3.42;2.95;;;;;;;15.56;53.08;100042.19;10374884;28;20062;-71
2022/07/29 03:20:55;;;;;;;10.73;4.28;;;;;;;15.51;53.86;100038.94;10376574;28;20057;-71
2022/07/29 03:25:57;;;;;;;5.32;4.68;;;;;;;15.58;53.13;100045.59;10376173;28;20048;-71
2022/07/29 03:30:58;;;;;;;5.32;4.07;;;;;;;15.53;53.24;100039.69;10359094;28;20123;-72
2022/07/29 03:36:02;;;;;;;7.95;5.03;;;;;;;15.68;52.95;100038.09;10375513;28;20037;-71
2022/07/29 03:41:09;;;;;;;4.90;3.90;;;;;;;15.57;53.15;100034.16;10375607;28;20113;-71
2022/07/29 03:46:13;;;;;;;4.15;3.70;;;;;;;15.63;53.17;100035.63;10375228;28;20045;-71
2022/07/29 03:51:15;;;;;;;7.53;4.18;;;;;;;15.64;53.03;100022.34;10374779;28;20050;-71
2022/07/29 03:56:20;;;;;;;4.60;3.50;;;;;;;15.67;52.88;100029.28;10375021;28;20403;-71
2022/07/29 04:01:22;;;;;;;6.45;3.17;;;;;;;15.55;53.90;100033.38;10375098;28;20389;-71
2022/07/29 04:06:25;;;;;;;4.85;3.55;;;;;;;15.52;53.64;100027.38;10374877;28;20045;-71
2022/07/29 04:11:27;;;;;;;3.95;3.42;;;;;;;15.83;52.95;100043.41;10375766;28;20046;-71
2022/07/29 04:16:29;;;;;;;6.43;4.28;;;;;;;16.06;52.81;100036.88;10374594;28;20041;-70
2022/07/29 04:21:30;;;;;;;5.90;3.88;;;;;;;15.82;53.76;100041.69;10374549;28;20052;-71
2022/07/29 04:26:33;;;;;;;5.78;3.72;;;;;;;16.00;53.16;100044.31;10375345;28;20133;-71
2022/07/29 04:31:34;;;;;;;5.40;4.00;;;;;;;15.94;54.25;100036.66;10382587;28;20454;-70
2022/07/29 04:36:36;;;;;;;8.13;4.07;;;;;;;16.31;52.94;100044.34;10383153;28;20097;-71
2022/07/29 04:41:38;;;;;;;7.22;4.53;;;;;;;16.39;52.47;100043.94;10365451;28;20056;-71
2022/07/29 04:46:40;;;;;;;9.25;6.15;;;;;;;16.37;52.34;100048.44;10381874;28;20518;-72
2022/07/29 04:51:41;;;;;;;11.25;8.30;;;;;;;16.53;51.37;100048.47;10381608;28;20104;-70
2022/07/29 04:56:43;;;;;;;16.33;10.85;;;;;;;16.26;52.79;100040.25;10381422;28;20041;-71
2022/07/29 05:01:45;;;;;;;16.45;11.85;;;;;;;16.42;52.03;100038.44;10382624;28;20050;-72
2022/07/29 05:06:46;;;;;;;20.27;13.77;;;;;;;16.63;51.69;100041.69;10381706;28;20439;-71
2022/07/29 05:11:48;;;;;;;15.05;12.30;;;;;;;16.81;50.98;100027.38;10381783;28;20049;-71
2022/07/29 05:16:50;;;;;;;17.73;15.98;;;;;;;17.13;50.19;100035.28;10381132;28;20491;-72
2022/07/29 05:21:52;;;;;;;15.63;14.18;;;;;;;16.97;50.65;100026.50;10382256;28;20049;-72
2022/07/29 05:26:54;;;;;;;19.23;16.02;;;;;;;17.11;50.40;100030.06;10380033;28;20504;-71
2022/07/29 05:31:55;;;;;;;17.63;14.90;;;;;;;17.15;50.13;100044.88;10379941;28;20078;-71
2022/07/29 05:36:57;;;;;;;31.90;21.33;;;;;;;17.15;50.41;100044.03;10379148;28;20044;-71
2022/07/29 05:41:59;;;;;;;20.45;17.75;;;;;;;17.09;51.25;100049.72;10377956;28;20061;-70
2022/07/29 05:47:00;;;;;;;26.85;24.10;;;;;;;17.73;49.92;100040.53;10379311;28;20440;-71
2022/07/29 05:52:03;;;;;;;34.88;24.83;;;;;;;17.81;50.37;100043.59;10379351;28;20054;-72
2022/07/29 05:57:05;;;;;;;64.45;26.83;;;;;;;18.19;49.94;100036.84;10379863;28;20045;-71
2022/07/29 06:02:06;;;;;;;36.58;25.27;;;;;;;18.17;49.35;100044.06;10379171;28;20515;-71
2022/07/29 06:07:08;;;;;;;41.17;25.98;;;;;;;18.41;48.79;100046.00;10379068;28;20077;-70
2022/07/29 06:12:10;;;;;;;42.05;27.48;;;;;;;18.52;48.62;100049.81;10379094;28;20046;-70
2022/07/29 06:17:11;;;;;;;58.60;35.10;;;;;;;18.85;47.61;100039.63;10377968;28;20046;-71
2022/07/29 06:22:15;;;;;;;60.60;36.30;;;;;;;18.89;48.34;100043.81;10379017;28;20407;-70
2022/07/29 06:27:17;;;;;;;89.72;47.58;;;;;;;19.32;46.99;100040.09;10379003;28;20050;-70
2022/07/29 06:32:19;;;;;;;80.05;44.90;;;;;;;19.77;45.16;100040.59;10378335;28;20049;-71
2022/07/29 06:37:23;;;;;;;75.90;44.83;;;;;;;19.77;45.58;100048.59;10360244;28;20038;-70
2022/07/29 06:42:26;;;;;;;72.90;44.13;;;;;;;19.80;46.17;100048.38;10377673;28;20052;-70
2022/07/29 06:47:28;;;;;;;103.68;56.95;;;;;;;19.94;46.10;100052.75;10377439;28;20085;-71
2022/07/29 06:52:29;;;;;;;102.85;54.88;;;;;;;20.16;45.57;100056.44;10378112;28;20050;-69
2022/07/29 06:57:31;;;;;;;92.65;56.33;;;;;;;20.41;44.19;100060.03;10378035;28;20542;-69
2022/07/29 07:02:33;;;;;;;90.13;52.92;;;;;;;20.25;45.46;100054.09;10378206;28;20052;-70
2022/07/29 07:07:35;;;;;;;86.82;51.65;;;;;;;20.51;45.04;100055.78;10377853;28;20038;-69
2022/07/29 07:12:36;;;;;;;82.65;50.90;;;;;;;20.76;43.90;100061.97;10378067;28;20042;-69
2022/07/29 07:17:38;;;;;;;80.13;46.45;;;;;;;20.36;44.90;100056.81;10377807;28;20042;-69
2022/07/29 07:22:40;;;;;;;56.97;39.13;;;;;;;20.54;44.47;100055.56;10378977;28;20053;-68
2022/07/29 07:27:44;;;;;;;54.42;35.58;;;;;;;20.84;44.12;100047.06;10378821;28;20041;-68
2022/07/29 07:32:46;;;;;;;56.25;35.35;;;;;;;20.70;44.32;100049.94;10379307;28;20160;-68
2022/07/29 07:37:48;;;;;;;46.75;30.08;;;;;;;20.84;44.21;100044.41;10404695;28;20032;-69
2022/07/29 07:42:50;;;;;;;52.25;31.85;;;;;;;21.06;43.81;100048.16;10442933;28;20136;-70
2022/07/29 07:47:51;;;;;;;42.67;29.92;;;;;;;21.32;43.19;100048.88;10429826;28;20045;-69
2022/07/29 07:52:57;;;;;;;42.42;28.13;;;;;;;21.03;43.61;100040.34;10418261;28;20041;-69
2022/07/29 07:57:59;;;;;;;36.53;26.67;;;;;;;21.48;42.17;100037.88;10423373;28;20057;-69
2022/07/29 08:03:01;;;;;;;30.58;23.20;;;;;;;21.36;43.29;100037.00;10417499;28;20061;-69
2022/07/29 08:08:03;;;;;;;26.10;22.48;;;;;;;22.26;41.35;100023.72;10417231;28;20060;-69
2022/07/29 08:13:10;;;;;;;38.40;25.50;;;;;;;22.47;41.33;100024.66;10444403;28;20080;-69
2022/07/29 08:18:12;;;;;;;27.38;24.55;;;;;;;22.53;40.91;100021.47;10459871;28;20049;-69
2022/07/29 08:23:14;;;;;;;29.40;24.60;;;;;;;22.99;40.51;100016.84;10457487;28;20041;-68
2022/07/29 08:28:17;;;;;;;28.45;21.90;;;;;;;22.94;40.68;100011.88;10418153;28;20044;-69
2022/07/29 08:33:18;;;;;;;22.50;19.65;;;;;;;23.95;39.01;100013.97;10417522;28;20049;-68
2022/07/29 08:38:20;;;;;;;26.27;17.42;;;;;;;24.56;38.00;100010.34;10418029;28;20410;-69
2022/07/29 08:43:22;;;;;;;16.40;14.15;;;;;;;24.64;37.58;100014.03;10418362;28;20496;-69
2022/07/29 08:48:24;;;;;;;21.15;15.15;;;;;;;24.14;38.45;100010.50;10418047;28;20117;-69
2022/07/29 08:53:27;;;;;;;15.30;13.65;;;;;;;24.81;37.97;99999.06;10417923;28;20452;-69
2022/07/29 08:58:32;;;;;;;28.17;14.43;;;;;;;25.44;36.63;100004.00;10418706;28;20037;-68
2022/07/29 09:03:40;;;;;;;21.75;13.77;;;;;;;25.90;36.14;99997.81;10418831;28;20454;-69
2022/07/29 09:08:42;;;;;;;14.77;11.95;;;;;;;26.53;35.61;99991.69;10419153;28;20049;-69
2022/07/29 09:13:44;;;;;;;16.60;11.43;;;;;;;27.10;34.22;99981.47;10420136;28;20095;-69
2022/07/29 09:18:46;;;;;;;16.20;11.57;;;;;;;27.26;33.86;99977.19;10426183;28;20044;-70
2022/07/29 09:24:11;;;;;;;13.60;9.48;;;;;;;27.61;33.61;99963.56;10425774;28;20045;-69
2022/07/29 09:29:14;;;;;;;11.13;9.98;;;;;;;27.42;34.11;99963.81;10425422;28;20065;-69
2022/07/29 09:34:28;;;;;;;11.13;8.65;;;;;;;27.35;33.52;99954.63;10424860;28;20072;-69
2022/07/29 09:39:43;;;;;;;11.05;8.57;;;;;;;27.44;33.26;99967.19;10424146;28;20053;-69
2022/07/29 09:44:49;;;;;;;9.27;8.35;;;;;;;27.31;33.69;99955.94;10424094;28;20041;-69
2022/07/29 09:49:57;;;;;;;9.25;8.38;;;;;;;27.74;33.85;99962.31;10422454;28;20053;-69
2022/07/29 09:55:07;;;;;;;12.98;11.77;;;;;;;27.98;32.92;99965.16;10422483;28;20042;-69
2022/07/29 10:00:14;;;;;;;12.23;10.63;;;;;;;28.48;32.68;99968.88;10422546;28;20100;-69
2022/07/29 10:05:24;;;;;;;15.23;13.13;;;;;;;28.97;31.51;99955.44;10422083;28;20072;-70
2022/07/29 10:10:31;;;;;;;13.70;12.30;;;;;;;29.52;30.69;99947.41;10423739;28;20496;-71
2022/07/29 10:15:40;;;;;;;15.48;13.60;;;;;;;30.29;30.22;99953.09;10422677;28;20041;-69
2022/07/29 10:20:42;;;;;;;14.65;13.13;;;;;;;30.83;29.16;99938.69;10423181;28;20045;-70
2022/07/29 10:25:45;;;;;;;12.18;11.00;;;;;;;31.08;28.76;99933.91;10421165;28;20044;-69
2022/07/29 10:30:50;;;;;;;12.20;9.25;;;;;;;30.44;29.54;99934.19;10423278;28;20076;-70
2022/07/29 10:36:03;;;;;;;10.13;8.67;;;;;;;30.79;28.31;99935.50;10423589;28;20038;-69
2022/07/29 10:41:34;;;;;;;9.20;8.30;;;;;;;30.43;29.07;99928.94;10422287;28;20288;-69
2022/07/29 10:46:56;;;;;;;11.65;8.30;;;;;;;31.21;28.40;99922.38;10423516;28;20044;-69
2022/07/29 10:52:04;;;;;;;7.30;6.35;;;;;;;31.18;27.93;99918.19;10403829;28;20049;-69
2022/07/29 10:57:21;;;;;;;7.68;5.90;;;;;;;30.22;29.44;99924.16;10421524;28;20044;-69
2022/07/29 11:02:32;;;;;;;4.15;3.70;;;;;;;30.89;28.96;99924.38;10421512;28;20124;-69
2022/07/29 11:08:17;;;;;;;5.13;4.28;;;;;;;30.76;28.21;99916.00;10422044;28;20042;-70
2022/07/29 11:13:43;;;;;;;5.25;3.80;;;;;;;31.30;28.14;99914.03;10403118;28;20049;-69
2022/07/29 11:19:12;;;;;;;5.35;3.45;;;;;;;32.26;27.22;99903.16;10422380;28;20526;-69
2022/07/29 11:24:15;;;;;;;2.92;1.30;;;;;;;31.96;26.25;99900.50;10420744;28;20041;-70
2022/07/29 11:29:31;;;;;;;3.13;1.40;;;;;;;31.75;26.86;99903.16;10419126;28;20038;-69
2022/07/29 11:34:41;;;;;;;3.75;1.10;;;;;;;31.78;27.01;99890.00;10400871;28;20045;-69
2022/07/29 11:39:44;;;;;;;3.13;1.10;;;;;;;32.30;25.99;99886.25;10418703;28;20514;-70
2022/07/29 11:45:07;;;;;;;1.75;1.00;;;;;;;32.08;26.87;99890.81;10420594;28;20120;-70
2022/07/29 11:50:36;;;;;;;1.75;0.93;;;;;;;32.60;26.42;99891.63;10420549;28;20042;-69
2022/07/29 11:55:44;;;;;;;3.85;1.38;;;;;;;32.40;26.81;99889.53;10419542;28;20478;-69
2022/07/29 12:01:06;;;;;;;1.60;1.20;;;;;;;32.18;26.61;99890.50;10401265;28;20041;-69
2022/07/29 12:06:13;;;;;;;1.48;1.10;;;;;;;32.10;26.85;99896.94;10419430;28;20044;-70
2022/07/29 12:11:17;;;;;;;4.75;1.15;;;;;;;31.14;28.01;99884.28;10419045;28;20045;-70
2022/07/29 12:16:22;;;;;;;1.30;1.10;;;;;;;30.60;28.47;99885.25;10418755;28;20116;-70
2022/07/29 12:21:46;;;;;;;1.83;1.10;;;;;;;30.49;28.56;99882.13;10418423;28;20084;-69
2022/07/29 12:26:58;;;;;;;1.70;1.00;;;;;;;31.50;27.53;99876.28;10418214;28;20048;-70
2022/07/29 12:32:00;;;;;;;2.70;1.13;;;;;;;31.53;27.79;99872.34;10418808;28;20050;-70
2022/07/29 12:37:03;;;;;;;2.00;1.10;;;;;;;30.97;28.71;99867.31;10418089;28;20059;-70
2022/07/29 12:42:15;;;;;;;2.05;1.38;;;;;;;31.36;27.74;99864.38;10418892;28;20044;-69
2022/07/29 12:47:19;;;;;;;2.33;1.60;;;;;;;31.33;28.19;99858.47;10420909;28;20038;-69
2022/07/29 12:52:28;;;;;;;5.57;1.50;;;;;;;30.24;28.90;99859.75;10426562;28;20074;-69
2022/07/29 12:57:31;;;;;;;5.13;1.50;;;;;;;29.96;29.91;99848.53;10426273;28;20064;-70
2022/07/29 13:02:34;;;;;;;3.17;1.45;;;;;;;30.10;29.86;99855.91;10425243;28;20041;-70
2022/07/29 13:07:38;;;;;;;2.90;1.30;;;;;;;30.04;30.00;99853.94;10406564;28;20052;-70
2022/07/29 13:13:09;;;;;;;4.40;1.38;;;;;;;30.22;29.63;99846.38;10423965;28;20064;-69
2022/07/29 13:18:31;;;;;;;2.15;1.30;;;;;;;30.18;29.72;99849.63;10424325;28;20050;-69
2022/07/29 13:23:32;;;;;;;5.85;1.65;;;;;;;30.57;29.47;99844.06;10425207;28;20049;-69
2022/07/29 13:28:39;;;;;;;3.50;1.23;;;;;;;30.17;29.26;99847.94;10424807;28;20037;-69
2022/07/29 13:33:44;;;;;;;1.85;1.30;;;;;;;30.15;29.64;99837.28;10406863;28;20053;-68
2022/07/29 13:38:46;;;;;;;2.70;1.10;;;;;;;30.52;29.16;99836.50;10423840;28;20045;-69
2022/07/29 13:43:48;;;;;;;1.65;1.17;;;;;;;30.46;29.93;99831.81;10423917;28;20411;-69
2022/07/29 13:48:50;;;;;;;2.88;1.35;;;;;;;30.63;28.59;99824.34;10423029;28;20042;-69
2022/07/29 13:53:52;;;;;;;1.85;1.20;;;;;;;30.38;29.87;99830.00;10422347;28;20415;-70
2022/07/29 13:58:54;;;;;;;2.95;1.42;;;;;;;30.64;29.33;99834.19;10421677;28;20102;-70
2022/07/29 14:03:55;;;;;;;2.83;1.23;;;;;;;30.82;28.83;99826.59;10406467;28;20104;-69
2022/07/29 14:08:57;;;;;;;2.97;1.20;;;;;;;30.83;29.15;99814.69;10404509;28;20042;-69
2022/07/29 14:13:59;;;;;;;4.55;1.40;;;;;;;30.62;29.35;99826.22;10422911;28;20410;-69
2022/07/29 14:19:01;;;;;;;3.40;1.20;;;;;;;30.55;29.23;99808.16;10422046;28;20109;-69
2022/07/29 14:24:03;;;;;;;3.33;1.20;;;;;;;30.27;29.90;99811.44;10421720;28;20052;-70
2022/07/29 14:29:18;;;;;;;;;;;;;;;30.25;29.80;99809.94;10405819;28;20037;-69
2022/07/29 14:34:19;;;;;;;2.70;1.20;;;;;;;29.75;30.39;99808.53;10422032;28;19940;-70
2022/07/29 14:39:25;;;;;;;1.80;1.52;;;;;;;29.70;30.33;99809.06;10422282;28;20045;-69
2022/07/29 14:44:32;;;;;;;2.60;1.13;;;;;;;29.51;30.87;99817.59;10422058;28;20053;-69
2022/07/29 14:49:35;;;;;;;4.18;1.13;;;;;;;29.39;30.56;99817.13;10402415;28;20400;-69
2022/07/29 14:54:36;;;;;;;2.25;1.38;;;;;;;29.20;30.87;99809.44;10419416;28;20133;-69
2022/07/29 14:59:38;;;;;;;7.13;1.30;;;;;;;29.06;31.35;99811.00;10420264;28;20442;-69
2022/07/29 15:04:40;;;;;;;2.75;1.45;;;;;;;29.08;30.82;99812.50;10420019;28;20515;-69
2022/07/29 15:09:42;;;;;;;1.45;1.30;;;;;;;29.21;31.00;99814.66;10419030;28;20495;-69
2022/07/29 15:14:50;;;;;;;3.47;1.30;;;;;;;29.14;31.45;99802.84;10402341;28;20099;-69
2022/07/29 15:19:52;;;;;;;2.47;1.33;;;;;;;29.27;31.01;99808.56;10419626;28;20046;-68
2022/07/29 15:24:53;;;;;;;2.97;1.20;;;;;;;29.14;30.50;99808.28;10418701;28;20045;-69
2022/07/29 15:29:55;;;;;;;1.92;1.20;;;;;;;29.43;30.04;99799.50;10419008;28;20037;-69
2022/07/29 15:34:57;;;;;;;1.85;1.50;;;;;;;29.48;29.54;99794.41;10419952;28;20054;-69
2022/07/29 15:39:59;;;;;;;2.30;1.40;;;;;;;29.26;30.43;99792.47;10412786;28;20050;-69
2022/07/29 15:45:02;;;;;;;2.55;1.30;;;;;;;29.12;30.63;99794.06;10420529;28;20045;-70
2022/07/29 15:50:11;;;;;;;4.43;1.37;;;;;;;29.03;29.99;99785.13;10419662;28;20052;-70
2022/07/29 15:55:14;;;;;;;3.60;1.50;;;;;;;29.03;30.38;99779.69;10419848;28;20120;-69
2022/07/29 16:00:16;;;;;;;3.47;1.60;;;;;;;28.90;30.90;99769.38;10419326;28;20041;-69
2022/07/29 16:05:18;;;;;;;3.17;1.75;;;;;;;28.58;31.80;99769.47;10418319;28;20056;-70
2022/07/29 16:10:20;;;;;;;3.08;1.50;;;;;;;28.50;32.02;99769.47;10419345;28;20083;-70
2022/07/29 16:15:22;;;;;;;4.40;2.00;;;;;;;28.67;31.44;99766.56;10419943;28;20084;-70
2022/07/29 16:20:24;;;;;;;6.13;5.32;;;;;;;28.53;31.94;99759.16;10420458;28;20050;-69
2022/07/29 16:25:26;;;;;;;8.07;7.15;;;;;;;28.25;32.75;99750.53;10427642;28;20065;-70
2022/07/29 16:30:50;;;;;;;7.85;7.18;;;;;;;27.99;33.17;99752.56;10427197;28;20140;-69
2022/07/29 16:35:51;;;;;;;10.10;6.78;;;;;;;27.94;32.83;99757.63;10426880;28;20045;-70
2022/07/29 16:40:53;;;;;;;8.57;7.10;;;;;;;27.84;33.47;99760.47;10426305;28;20049;-69
2022/07/29 16:45:55;;;;;;;8.55;7.75;;;;;;;27.80;33.73;99757.28;10426272;28;20124;-69
2022/07/29 16:50:57;;;;;;;8.60;7.80;;;;;;;27.79;33.44;99757.41;10426325;28;20488;-69
2022/07/29 16:55:58;;;;;;;7.35;6.75;;;;;;;27.79;33.47;99763.66;10426751;28;20037;-70
2022/07/29 17:01:00;;;;;;;9.77;7.43;;;;;;;27.74;33.14;99757.09;10408925;28;20037;-70
2022/07/29 17:06:02;;;;;;;7.82;7.03;;;;;;;27.75;33.20;99754.19;10425480;28;20376;-71
2022/07/29 17:11:03;;;;;;;6.95;6.28;;;;;;;27.63;33.63;99752.81;10424874;28;20045;-69
2022/07/29 17:16:05;;;;;;;6.57;5.65;;;;;;;27.79;33.39;99746.63;10423996;28;20411;-70
2022/07/29 17:21:07;;;;;;;5.30;4.88;;;;;;;27.56;33.60;99758.00;10425720;28;20056;-70
2022/07/29 17:26:08;;;;;;;3.90;3.50;;;;;;;27.79;33.30;99755.56;10407005;28;20547;-70
2022/07/29 17:31:10;;;;;;;3.83;3.25;;;;;;;27.69;33.10;99748.59;10428954;28;20052;-69
2022/07/29 17:36:24;;;;;;;4.88;3.10;;;;;;;27.69;33.29;99762.94;10422486;28;20045;-69
2022/07/29 17:41:26;;;;;;;2.83;2.50;;;;;;;27.66;33.10;99753.31;10426485;28;20495;-69
2022/07/29 17:46:28;;;;;;;3.78;2.58;;;;;;;27.67;33.25;99746.91;10427141;28;20045;-69
2022/07/29 17:51:30;;;;;;;2.40;2.17;;;;;;;27.31;33.96;99748.16;10426441;28;20045;-69
2022/07/29 17:56:31;;;;;;;4.85;1.88;;;;;;;27.42;33.83;99745.16;10425465;28;20045;-69
2022/07/29 18:01:33;;;;;;;2.97;2.17;;;;;;;27.21;34.01;99734.78;10427138;28;20080;-69
2022/07/29 18:06:36;;;;;;;3.00;2.00;;;;;;;27.16;33.70;99737.97;10422876;28;20046;-70
2022/07/29 18:11:37;;;;;;;2.20;1.50;;;;;;;27.09;34.07;99744.19;10403269;28;20571;-69
2022/07/29 18:16:39;;;;;;;3.83;2.35;;;;;;;26.49;37.20;99752.25;10422795;28;20072;-70
2022/07/29 18:21:41;;;;;;;4.15;2.60;;;;;;;26.18;38.17;99763.44;10420295;28;20041;-69
2022/07/29 18:26:55;;;;;;;8.50;2.65;;;;;;;25.99;38.85;99761.75;10403331;28;20053;-69
2022/07/29 18:31:58;;;;;;;5.90;2.70;;;;;;;25.92;38.93;99766.91;10421246;28;20440;-69
2022/07/29 18:37:00;;;;;;;7.70;2.42;;;;;;;25.61;39.66;99769.06;10420352;28;20423;-69
2022/07/29 18:42:03;;;;;;;3.13;2.20;;;;;;;25.60;39.86;99767.38;10420703;28;20431;-70
2022/07/29 18:47:04;;;;;;;7.00;2.40;;;;;;;25.38;40.62;99759.72;10420298;28;20037;-70
2022/07/29 18:52:07;;;;;;;7.03;2.72;;;;;;;25.12;40.95;99765.81;10422378;28;20045;-69
2022/07/29 18:57:08;;;;;;;5.00;2.55;;;;;;;25.03;41.39;99758.59;10421452;28;20088;-69
2022/07/29 19:02:30;;;;;;;4.38;2.60;;;;;;;24.77;42.22;99763.78;10420986;28;20437;-69
2022/07/29 19:07:32;;;;;;;10.55;3.03;;;;;;;24.69;42.80;99770.88;10420134;28;20046;-68
2022/07/29 19:12:34;;;;;;;4.75;3.28;;;;;;;24.60;42.81;99776.13;10421524;28;20551;-70
2022/07/29 19:17:35;;;;;;;5.13;2.22;;;;;;;24.63;43.53;99783.91;10421573;28;20041;-69
2022/07/29 19:22:37;;;;;;;6.05;3.25;;;;;;;24.51;43.59;99789.59;10420592;28;20103;-68
2022/07/29 19:27:40;;;;;;;4.40;2.00;;;;;;;24.38;43.62;99808.69;10419646;28;20060;-68
2022/07/29 19:32:41;;;;;;;6.00;3.08;;;;;;;24.34;44.15;99800.03;10418772;28;20056;-69
2022/07/29 19:37:43;;;;;;;4.00;3.17;;;;;;;24.55;43.70;99802.59;10419463;28;20046;-69
2022/07/29 19:42:46;;;;;;;4.20;3.30;;;;;;;24.46;44.35;99807.97;10418988;28;20068;-70
2022/07/29 19:47:49;;;;;;;3.75;2.75;;;;;;;24.19;45.14;99803.31;10419259;28;20045;-69
2022/07/29 19:52:51;;;;;;;4.68;2.38;;;;;;;24.23;45.02;99812.78;10419784;28;20056;-69
2022/07/29 19:57:53;;;;;;;9.23;3.45;;;;;;;24.31;45.48;99818.28;10418692;28;20045;-70
2022/07/29 20:02:56;;;;;;;2.90;2.60;;;;;;;24.16;45.54;99821.38;10419464;28;20112;-69
2022/07/29 20:07:58;;;;;;;5.50;1.85;;;;;;;24.07;45.24;99826.75;10419749;28;20041;-70
2022/07/29 20:12:59;;;;;;;3.47;2.00;;;;;;;23.87;45.71;99833.94;10419441;28;20107;-69
2022/07/29 20:18:01;;;;;;;5.28;2.22;;;;;;;23.81;46.49;99829.09;10403323;28;20041;-69
2022/07/29 20:23:03;;;;;;;2.67;2.20;;;;;;;23.81;46.51;99824.59;10418532;28;20041;-70
2022/07/29 20:28:04;;;;;;;2.45;1.98;;;;;;;23.71;46.21;99828.25;10417901;28;20047;-69
2022/07/29 20:33:06;;;;;;;4.30;2.15;;;;;;;23.78;46.00;99816.81;10418550;28;20120;-69
2022/07/29 20:38:08;;;;;;;2.90;2.30;;;;;;;23.78;45.90;99826.72;10418398;28;20038;-69
2022/07/29 20:43:10;;;;;;;5.78;2.38;;;;;;;23.88;46.46;99825.75;10399883;28;20052;-68
2022/07/29 20:48:12;;;;;;;2.90;2.00;;;;;;;23.67;47.23;99822.31;10399102;28;20531;-69
2022/07/29 20:53:15;;;;;;;7.45;2.45;;;;;;;23.80;46.16;99830.94;10416551;28;20422;-68
2022/07/29 20:58:18;;;;;;;3.97;2.20;;;;;;;23.73;45.13;99832.50;10417419;28;20041;-70
2022/07/29 21:03:20;;;;;;;6.68;2.10;;;;;;;23.74;44.66;99833.34;10417109;28;20052;-70
2022/07/29 21:08:21;;;;;;;3.92;1.70;;;;;;;23.82;44.45;99837.03;10419989;28;20048;-69
2022/07/29 21:13:24;;;;;;;3.60;1.90;;;;;;;23.64;44.73;99836.84;10426453;28;20038;-70
2022/07/29 21:18:29;;;;;;;5.07;1.98;;;;;;;23.52;45.12;99837.91;10408827;28;20410;-70
2022/07/29 21:23:31;;;;;;;5.43;2.03;;;;;;;23.25;45.64;99838.53;10426851;28;20487;-70
2022/07/29 21:28:37;;;;;;;3.85;2.20;;;;;;;23.15;46.20;99841.16;10408674;28;20041;-70
2022/07/29 21:33:40;;;;;;;3.45;2.00;;;;;;;23.20;46.04;99839.88;10425382;28;20045;-69
2022/07/29 21:38:42;;;;;;;3.60;2.20;;;;;;;23.13;46.65;99832.38;10425521;28;20052;-69
2022/07/29 21:43:44;;;;;;;4.18;2.67;;;;;;;23.11;46.43;99839.72;10408368;28;20055;-69
2022/07/29 21:48:46;;;;;;;6.07;2.13;;;;;;;23.17;46.88;99836.50;10407697;28;20210;-70
2022/07/29 21:53:49;;;;;;;4.65;2.40;;;;;;;23.19;46.56;99824.78;10425142;28;20120;-70
2022/07/29 21:58:54;;;;;;;3.10;2.27;;;;;;;22.97;47.13;99833.84;10407177;28;20073;-69
2022/07/29 22:03:56;;;;;;;4.20;2.17;;;;;;;22.85;48.04;99833.06;10425573;28;20042;-69
2022/07/29 22:08:58;;;;;;;2.92;2.13;;;;;;;22.96;48.10;99830.31;10424763;28;20088;-69
2022/07/29 22:13:59;;;;;;;3.40;2.20;;;;;;;22.96;48.08;99835.69;10424350;28;20046;-69
2022/07/29 22:19:02;;;;;;;4.00;2.15;;;;;;;22.62;48.42;99840.38;10424682;28;20041;-69
2022/07/29 22:24:04;;;;;;;2.40;2.20;;;;;;;22.53;48.79;99842.00;10424160;28;20041;-69
2022/07/29 22:29:07;;;;;;;3.25;2.33;;;;;;;22.69;49.30;99835.34;10423053;28;20480;-69
2022/07/29 22:34:11;;;;;;;4.90;2.10;;;;;;;22.54;49.69;99834.84;10422581;28;20038;-69
2022/07/29 22:39:13;;;;;;;5.68;2.45;;;;;;;22.47;49.54;99837.16;10421767;28;20045;-69
2022/07/29 22:44:16;;;;;;;4.97;2.53;;;;;;;22.52;50.19;99829.59;10422304;28;20052;-69
2022/07/29 22:49:18;;;;;;;2.95;2.63;;;;;;;22.48;50.48;99827.28;10421421;28;20046;-70
2022/07/29 22:54:20;;;;;;;4.95;2.47;;;;;;;22.28;50.94;99829.00;10421377;28;20136;-69
2022/07/29 22:59:21;;;;;;;3.72;2.83;;;;;;;22.09;51.21;99822.47;10421927;28;20399;-69
2022/07/29 23:04:23;;;;;;;3.00;2.50;;;;;;;22.12;51.34;99816.88;10420717;28;20490;-69
2022/07/29 23:09:25;;;;;;;3.30;2.72;;;;;;;22.10;51.11;99815.28;10422364;28;20043;-69
2022/07/29 23:14:27;;;;;;;4.10;3.00;;;;;;;22.08;50.98;99819.91;10420681;28;20491;-69
2022/07/29 23:19:28;;;;;;;3.45;2.40;;;;;;;22.33;50.83;99816.06;10421923;28;20056;-69
2022/07/29 23:24:30;;;;;;;7.80;2.72;;;;;;;22.35;50.86;99835.50;10421463;28;20088;-69